Time;durP1;ratioP1;P1;durP2;ratioP2;P2;SDS_P1;SDS_P2;PMS_P1;PMS_P2;Temp;Humidity;BMP_temperature;BMP_pressure;BME280_temperature;BME280_humidity;BME280_pressure;Samples;Min_cycle;Max_cycle;Signal;HPM_P1;HPM_P2
2022/05/24 00:01:24;;;;;;;6.72;4.03;;;;;;;8.01;73.28;100329.97;1849821;77;20924;-88
2022/05/24 00:03:52;;;;;;;5.00;3.90;;;;;;;7.96;73.12;100327.61;1850007;77;20971;-87
2022/05/24 00:06:19;;;;;;;7.85;4.25;;;;;;;7.91;73.15;100330.91;1849876;77;20905;-89
2022/05/24 00:08:46;;;;;;;5.12;4.03;;;;;;;7.85;73.11;100326.04;1850323;77;20975;-89
2022/05/24 00:11:15;;;;;;;6.12;3.62;;;;;;;7.81;73.14;100324.52;1850544;77;21702;-88
2022/05/24 00:13:43;;;;;;;4.20;3.80;;;;;;;7.78;72.91;100335.97;1849708;77;20920;-88
2022/05/24 00:16:10;;;;;;;4.00;3.52;;;;;;;7.74;72.79;100334.44;1849973;77;20889;-85
2022/05/24 00:18:36;;;;;;;5.35;4.83;;;;;;;7.72;72.77;100334.14;1849642;77;21423;-90
2022/05/24 00:21:05;;;;;;;6.62;4.00;;;;;;;7.70;72.73;100330.77;1849626;77;20865;-87
2022/05/24 00:23:34;;;;;;;6.55;4.10;;;;;;;7.67;72.77;100334.38;1850519;77;21129;-88
2022/05/24 00:26:05;;;;;;;5.65;4.17;;;;;;;7.66;72.99;100333.52;1849542;77;20920;-88
2022/05/24 00:28:34;;;;;;;5.80;3.70;;;;;;;7.65;73.08;100334.92;1852386;77;20873;-86
2022/05/24 00:31:01;;;;;;;5.28;4.55;;;;;;;7.63;73.12;100337.61;1849973;77;20890;-87
2022/05/24 00:33:28;;;;;;;6.33;3.65;;;;;;;7.62;73.16;100329.84;1850150;77;20960;-87
2022/05/24 00:35:55;;;;;;;5.67;3.85;;;;;;;7.61;73.10;100329.48;1848482;76;21167;-87
2022/05/24 00:38:29;;;;;;;7.80;3.95;;;;;;;7.58;73.12;100331.80;1838393;77;21014;-84
2022/05/24 00:41:26;;;;;;;7.25;4.05;;;;;;;7.55;73.25;100328.02;1837994;77;20906;-85
2022/05/24 00:44:04;;;;;;;3.62;3.10;;;;;;;7.52;73.17;100328.19;1834559;76;20898;-87
2022/05/24 00:47:07;;;;;;;6.15;3.92;;;;;;;7.48;73.21;100330.57;1837573;77;20867;-87
2022/05/24 00:49:50;;;;;;;6.00;3.98;;;;;;;7.45;73.38;100332.05;1835657;76;21913;-87
2022/05/24 00:52:21;;;;;;;5.45;4.60;;;;;;;7.42;73.46;100338.23;1835244;77;21331;-87
2022/05/24 00:54:49;;;;;;;4.78;4.08;;;;;;;7.39;73.51;100329.75;1835260;77;20871;-88
2022/05/24 00:57:28;;;;;;;6.72;4.33;;;;;;;7.38;73.50;100336.73;1835094;77;20927;-87
2022/05/24 01:00:17;;;;;;;5.90;4.92;;;;;;;7.35;73.44;100338.64;1835225;77;20866;-88
2022/05/24 01:02:45;;;;;;;7.08;3.83;;;;;;;7.32;73.63;100332.30;1834954;77;21226;-89
2022/05/24 01:05:19;;;;;;;8.58;4.60;;;;;;;7.29;73.61;100341.09;1834888;77;20867;-88
2022/05/24 01:07:47;;;;;;;5.58;4.25;;;;;;;7.26;73.73;100334.73;1834960;78;20989;-88
2022/05/24 01:10:35;;;;;;;5.62;4.08;;;;;;;7.19;73.76;100335.98;1835075;77;21406;-88
2022/05/24 01:13:08;;;;;;;6.97;4.30;;;;;;;7.15;73.85;100348.31;1835058;78;20962;-89
2022/05/24 01:15:35;;;;;;;7.22;4.33;;;;;;;7.10;73.89;100344.27;1835403;77;21227;-88
2022/05/24 01:18:02;;;;;;;8.18;4.62;;;;;;;7.05;74.10;100337.52;1834957;77;21389;-89
2022/05/24 01:20:28;;;;;;;8.08;3.92;;;;;;;7.02;74.16;100335.04;1836238;77;20914;-85
2022/05/24 01:23:07;;;;;;;5.42;4.87;;;;;;;7.00;74.18;100338.22;1835836;77;20945;-88
2022/05/24 01:25:51;;;;;;;6.37;4.70;;;;;;;6.97;74.30;100340.95;1835306;77;21375;-89
2022/05/24 01:28:46;;;;;;;5.55;4.62;;;;;;;6.93;74.42;100338.11;1835303;77;21827;-88
2022/05/24 01:31:13;;;;;;;7.85;3.95;;;;;;;6.92;74.57;100332.99;1835408;77;20851;-86
2022/05/24 01:36:26;;;;;;;6.15;3.87;;;;;;;6.87;74.67;100338.44;1837960;77;20944;-89
2022/05/24 01:38:57;;;;;;;5.17;4.17;;;;;;;6.86;74.85;100335.43;1850503;77;20870;-87
2022/05/24 01:41:41;;;;;;;5.37;4.33;;;;;;;6.87;74.98;100337.13;1850053;77;20954;-88
2022/05/24 01:44:09;;;;;;;6.92;4.08;;;;;;;6.88;75.02;100342.72;1852315;77;21322;-88
2022/05/24 01:46:45;;;;;;;7.55;4.33;;;;;;;6.88;74.91;100350.53;1851955;76;21039;-87
2022/05/24 01:49:24;;;;;;;7.33;4.42;;;;;;;6.85;74.81;100351.53;1850345;77;20834;-88
2022/05/24 01:52:03;;;;;;;22.52;5.35;;;;;;;6.83;74.61;100346.02;1849616;77;21458;-89
2022/05/24 01:54:32;;;;;;;7.62;4.85;;;;;;;6.79;74.44;100346.61;1849540;77;21143;-89
2022/05/24 01:57:05;;;;;;;6.42;5.50;;;;;;;6.77;74.51;100351.52;1849457;77;21322;-88
2022/05/24 01:59:33;;;;;;;7.35;4.78;;;;;;;6.71;74.57;100353.95;1849630;77;20873;-89
2022/05/24 02:02:00;;;;;;;9.08;5.12;;;;;;;6.68;74.62;100351.50;1850528;77;20929;-85
2022/05/24 02:04:29;;;;;;;8.90;4.80;;;;;;;6.66;74.66;100351.20;1851081;77;20969;-89
2022/05/24 02:07:07;;;;;;;8.68;4.67;;;;;;;6.65;74.80;100351.66;1852304;77;21853;-89
2022/05/24 02:09:38;;;;;;;6.67;4.53;;;;;;;6.66;74.96;100349.89;1852207;77;20885;-89
2022/05/24 02:12:21;;;;;;;11.50;5.30;;;;;;;6.62;75.04;100355.23;1851258;77;20944;-88
2022/05/24 02:14:57;;;;;;;8.35;5.20;;;;;;;6.60;75.09;100347.98;1851279;77;20858;-88
2022/05/24 02:17:28;;;;;;;7.80;4.97;;;;;;;6.57;75.17;100347.27;1846043;76;20862;-87
2022/05/24 02:19:57;;;;;;;8.60;6.22;;;;;;;6.56;75.07;100354.25;1850290;77;21220;-87
2022/05/24 02:22:26;;;;;;;7.22;4.87;;;;;;;6.56;75.02;100349.50;1850031;77;20866;-87
2022/05/24 02:25:03;;;;;;;9.23;5.83;;;;;;;6.57;74.98;100353.78;1850129;77;21011;-87
2022/05/24 02:27:30;;;;;;;10.18;5.80;;;;;;;6.56;74.75;100352.11;1849495;77;20897;-87
2022/05/24 02:29:57;;;;;;;8.00;5.22;;;;;;;6.57;74.91;100354.61;1849911;77;20901;-88
2022/05/24 02:32:24;;;;;;;13.20;11.48;;;;;;;6.59;74.83;100356.69;1849909;77;21123;-87
2022/05/24 02:34:51;;;;;;;9.95;6.55;;;;;;;6.60;74.80;100358.40;1849614;77;20869;-89
2022/05/24 02:37:19;;;;;;;8.88;5.67;;;;;;;6.63;74.88;100361.31;1844171;77;20919;-87
2022/05/24 02:42:32;;;;;;;8.98;5.62;;;;;;;6.62;75.00;100365.66;1835556;77;20878;-87
2022/05/24 02:44:59;;;;;;;8.83;6.12;;;;;;;6.66;75.55;100368.97;1837570;77;21125;-87
2022/05/24 02:47:26;;;;;;;8.35;5.58;;;;;;;6.71;75.53;100363.53;1837136;77;20785;-85
2022/05/24 02:49:53;;;;;;;8.90;5.75;;;;;;;6.77;75.53;100365.39;1838450;76;20847;-85
2022/05/24 02:52:20;;;;;;;11.38;6.47;;;;;;;6.81;75.16;100361.72;1836139;76;20833;-87
2022/05/24 02:54:47;;;;;;;7.65;5.80;;;;;;;6.84;75.05;100368.07;1836116;76;20895;-87
2022/05/24 02:57:14;;;;;;;9.43;6.17;;;;;;;6.87;75.01;100369.71;1835420;77;21920;-86
2022/05/24 02:59:43;;;;;;;9.98;6.78;;;;;;;6.92;74.99;100381.22;1835113;77;20907;-88
2022/05/24 03:02:11;;;;;;;7.30;5.20;;;;;;;6.94;74.96;100377.61;1835317;76;20876;-87
2022/05/24 03:04:38;;;;;;;11.73;6.35;;;;;;;6.97;75.17;100378.75;1835146;77;20918;-86
2022/05/24 03:09:50;;;;;;;11.78;7.47;;;;;;;7.03;75.42;100379.77;1835247;76;21230;-87
2022/05/24 03:15:06;;;;;;;18.35;12.78;;;;;;;7.09;75.68;100382.98;1835375;77;20934;-88
2022/05/24 03:17:33;;;;;;;22.50;13.78;;;;;;;7.16;75.81;100381.31;1835050;77;20918;-87
2022/05/24 03:20:00;;;;;;;20.90;15.25;;;;;;;7.26;75.79;100381.22;1835576;77;20870;-87
2022/05/24 03:22:27;;;;;;;23.52;15.45;;;;;;;7.35;75.93;100387.74;1835385;77;21221;-88
2022/05/24 03:24:54;;;;;;;22.05;13.60;;;;;;;7.44;76.06;100385.97;1835107;76;20952;-90
2022/05/24 03:27:21;;;;;;;16.60;12.45;;;;;;;7.57;76.01;100393.19;1832802;77;20914;-88
2022/05/24 03:29:49;;;;;;;18.35;13.85;;;;;;;7.68;75.94;100396.08;1828531;77;20922;-88
2022/05/24 03:32:18;;;;;;;21.05;13.38;;;;;;;7.79;76.16;100396.37;1828790;77;20961;-86
2022/05/24 03:34:44;;;;;;;21.82;14.00;;;;;;;7.92;76.19;100401.80;1828932;77;21975;-88
2022/05/24 03:37:11;;;;;;;22.17;13.38;;;;;;;8.04;75.96;100404.22;1828528;77;20894;-88
2022/05/24 03:39:38;;;;;;;21.10;13.60;;;;;;;8.15;75.79;100407.58;1826289;77;20924;-87
2022/05/24 03:42:11;;;;;;;20.25;14.45;;;;;;;8.27;75.72;100400.37;1826687;78;20957;-89
2022/05/24 03:44:38;;;;;;;15.45;12.23;;;;;;;8.38;75.51;100399.35;1823322;77;20973;-88
2022/05/24 03:47:05;;;;;;;16.32;11.20;;;;;;;8.48;74.80;100399.24;1825883;78;21220;-88
2022/05/24 03:49:35;;;;;;;11.55;7.37;;;;;;;8.61;74.15;100399.42;1826156;78;21044;-88
2022/05/24 03:52:02;;;;;;;9.88;7.65;;;;;;;8.74;73.67;100396.10;1826534;78;20914;-86
2022/05/24 03:54:28;;;;;;;9.38;6.05;;;;;;;8.88;73.51;100398.33;1828581;77;20901;-87
2022/05/24 03:59:41;;;;;;;11.08;6.62;;;;;;;9.17;72.90;100399.75;1826930;78;21458;-88
2022/05/24 04:02:08;;;;;;;9.43;5.87;;;;;;;9.36;73.04;100399.98;1826476;77;21391;-86
2022/05/24 04:04:35;;;;;;;8.38;4.92;;;;;;;9.52;72.39;100396.86;1827210;77;20894;-87
2022/05/24 04:07:03;;;;;;;9.65;5.95;;;;;;;9.69;71.30;100396.70;1826863;78;20878;-87
2022/05/24 04:09:34;;;;;;;7.75;4.97;;;;;;;9.91;70.55;100393.59;1827640;78;21007;-88
2022/05/24 04:12:04;;;;;;;7.03;4.25;;;;;;;10.21;69.79;100391.84;1826628;78;20902;-87
2022/05/24 04:14:32;;;;;;;7.85;4.47;;;;;;;10.58;68.79;100393.86;1826176;77;20835;-88
2022/05/24 04:16:59;;;;;;;9.85;4.05;;;;;;;11.16;67.71;100396.23;1825946;77;21325;-89
2022/05/24 04:19:26;;;;;;;4.85;4.35;;;;;;;11.85;65.30;100396.86;1825915;77;20919;-89
2022/05/24 04:21:55;;;;;;;6.87;4.00;;;;;;;13.33;60.78;100389.77;1825887;77;21056;-87
2022/05/24 04:24:24;;;;;;;11.05;4.10;;;;;;;13.33;60.78;100389.77;1826090;77;21238;-89
2022/05/24 04:26:52;;;;;;;4.62;4.22;;;;;;;14.08;59.15;100395.86;1826124;77;21064;-92
2022/05/24 04:29:22;;;;;;;4.58;3.55;;;;;;;14.80;58.45;100387.97;1826773;77;20878;-88
2022/05/24 04:31:49;;;;;;;3.65;3.10;;;;;;;15.48;56.78;100386.36;1825864;77;20926;-87
2022/05/24 04:34:19;;;;;;;6.03;3.70;;;;;;;16.08;54.54;100382.09;1826472;77;20918;-86
2022/05/24 04:36:46;;;;;;;5.45;3.62;;;;;;;16.70;51.45;100387.28;1825841;78;22007;-87
2022/05/24 04:39:15;;;;;;;4.45;2.90;;;;;;;17.32;49.88;100393.14;1825365;77;20851;-88
2022/05/24 04:44:28;;;;;;;9.03;3.30;;;;;;;18.34;47.22;100406.57;1825566;77;20954;-89
2022/05/24 04:47:07;;;;;;;6.50;3.40;;;;;;;18.62;44.30;100409.19;1826219;77;20859;-89
2022/05/24 04:49:38;;;;;;;4.33;2.75;;;;;;;18.82;44.42;100402.78;1826543;77;21205;-86
2022/05/24 04:52:07;;;;;;;4.50;3.45;;;;;;;19.14;43.27;100401.44;1826140;77;21079;-86
2022/05/24 04:54:34;;;;;;;6.83;3.55;;;;;;;19.44;42.08;100404.16;1826275;78;20914;-87
2022/05/24 04:57:01;;;;;;;11.85;3.20;;;;;;;19.80;42.03;100412.07;1826628;77;20887;-87
2022/05/24 04:59:28;;;;;;;4.05;2.58;;;;;;;20.13;41.83;100424.74;1828777;78;20890;-87
2022/05/24 05:01:55;;;;;;;4.78;3.45;;;;;;;20.31;40.50;100429.98;1828931;77;21318;-88
2022/05/24 05:04:24;;;;;;;8.35;3.02;;;;;;;20.45;39.90;100428.02;1827856;77;20867;-86
2022/05/24 05:06:50;;;;;;;4.22;3.77;;;;;;;;;;1826184;77;21426;-86
2022/05/24 05:09:20;;;;;;;3.98;2.83;;;;;;;21.04;40.02;100427.54;1826188;78;20966;-87
2022/05/24 05:11:49;;;;;;;6.95;4.50;;;;;;;21.41;39.11;100427.59;1825875;77;21426;-86
2022/05/24 05:14:17;;;;;;;8.25;4.53;;;;;;;21.64;38.47;100426.91;1826451;77;21207;-88
2022/05/24 05:16:44;;;;;;;7.80;3.80;;;;;;;21.87;38.41;100435.03;1799576;78;21051;-87
2022/05/24 05:19:12;;;;;;;4.55;3.35;;;;;;;22.05;37.73;100428.97;1829175;77;20941;-87
2022/05/24 05:21:40;;;;;;;11.38;4.20;;;;;;;22.29;37.87;100432.09;1828465;77;20910;-88
2022/05/24 05:24:08;;;;;;;6.67;3.22;;;;;;;22.65;36.71;100430.25;1828437;77;20839;-87
2022/05/24 05:26:35;;;;;;;5.47;3.50;;;;;;;23.09;35.73;100425.66;1827377;77;21144;-87
2022/05/24 05:29:02;;;;;;;5.28;3.77;;;;;;;23.51;35.19;100428.84;1826369;78;21367;-89
2022/05/24 05:31:29;;;;;;;4.58;3.30;;;;;;;23.83;34.60;100425.54;1826934;78;20882;-86
2022/05/24 05:33:57;;;;;;;6.15;4.12;;;;;;;24.13;34.10;100429.89;1826787;78;20965;-88
2022/05/24 05:36:27;;;;;;;5.92;3.80;;;;;;;24.40;34.05;100424.88;1826077;77;20871;-88
2022/05/24 05:38:55;;;;;;;3.85;3.42;;;;;;;24.66;33.41;100420.89;1844370;77;21789;-88
2022/05/24 05:41:30;;;;;;;6.42;4.25;;;;;;;24.90;32.95;100416.52;1853539;77;20921;-89
2022/05/24 05:43:58;;;;;;;10.90;4.03;;;;;;;25.10;32.49;100413.17;1853210;77;20917;-89
2022/05/24 05:46:25;;;;;;;7.83;3.98;;;;;;;25.38;32.32;100418.09;1853275;77;20957;-88
2022/05/24 05:48:55;;;;;;;9.95;3.70;;;;;;;25.72;31.95;100416.48;1853535;77;20953;-86
2022/05/24 05:51:21;;;;;;;8.45;4.62;;;;;;;26.04;31.34;100420.45;1853544;77;21251;-89
2022/05/24 05:53:53;;;;;;;5.92;3.95;;;;;;;26.19;31.09;100423.02;1853802;77;20945;-85
2022/05/24 05:56:22;;;;;;;4.65;4.05;;;;;;;26.32;30.56;100421.39;1853684;77;20872;-86
2022/05/24 05:58:50;;;;;;;8.25;4.42;;;;;;;26.45;29.40;100422.80;1853824;77;20967;-86
2022/05/24 06:01:20;;;;;;;8.55;4.28;;;;;;;26.52;29.77;100424.16;1854248;77;20905;-88
2022/05/24 06:03:53;;;;;;;7.62;4.62;;;;;;;26.54;29.75;100426.14;1855651;77;21345;-86
2022/05/24 06:06:22;;;;;;;12.03;5.42;;;;;;;26.62;29.51;100422.79;1855653;77;20881;-85
2022/05/24 06:08:52;;;;;;;9.55;5.78;;;;;;;26.68;29.37;100430.58;1854984;77;20941;-86
2022/05/24 06:11:19;;;;;;;9.38;5.80;;;;;;;26.76;28.19;100431.72;1853380;77;20956;-85
2022/05/24 06:13:46;;;;;;;9.63;6.45;;;;;;;26.88;28.28;100436.02;1853913;77;21350;-85
2022/05/24 06:16:13;;;;;;;10.53;7.15;;;;;;;27.02;27.64;100437.68;1853886;77;21077;-85
2022/05/24 06:18:40;;;;;;;13.93;7.78;;;;;;;26.97;27.59;100444.20;1853377;77;20865;-88
2022/05/24 06:21:07;;;;;;;9.90;6.92;;;;;;;26.90;27.18;100434.44;1853187;77;21899;-87
2022/05/24 06:23:34;;;;;;;9.88;6.50;;;;;;;26.84;27.42;100438.80;1822819;77;20870;-88
2022/05/24 06:26:03;;;;;;;10.65;6.87;;;;;;;26.74;27.95;100439.16;1853664;77;20865;-87
2022/05/24 06:28:31;;;;;;;12.88;7.30;;;;;;;26.57;26.43;100435.17;1853238;77;21146;-86
2022/05/24 06:30:57;;;;;;;9.28;6.65;;;;;;;26.41;26.30;100440.36;1853519;77;20914;-87
2022/05/24 06:33:28;;;;;;;5.37;4.87;;;;;;;26.50;26.53;100437.80;1853364;77;20898;-88
2022/05/24 06:35:55;;;;;;;5.62;4.05;;;;;;;26.70;25.90;100433.05;1853520;77;20854;-87
2022/05/24 06:38:22;;;;;;;8.08;4.15;;;;;;;26.94;25.66;100434.35;1853549;76;20858;-87
2022/05/24 06:40:49;;;;;;;4.45;3.70;;;;;;;27.23;24.16;100435.34;1853321;77;21095;-87
2022/05/24 06:43:18;;;;;;;5.58;3.80;;;;;;;27.54;24.60;100438.47;1852754;77;20854;-88
2022/05/24 06:45:45;;;;;;;6.83;3.90;;;;;;;27.86;24.18;100433.59;1853287;77;20933;-87
2022/05/24 06:48:12;;;;;;;8.80;5.17;;;;;;;28.17;24.83;100436.61;1853176;77;20866;-87
2022/05/24 06:50:40;;;;;;;10.13;5.40;;;;;;;28.45;22.57;100434.42;1853305;77;20826;-89
2022/05/24 06:53:07;;;;;;;4.03;3.60;;;;;;;28.80;22.14;100434.61;1853224;77;21296;-87
2022/05/24 06:55:37;;;;;;;6.10;4.40;;;;;;;29.10;21.52;100428.95;1854341;77;20920;-85
2022/05/24 06:58:05;;;;;;;8.38;4.55;;;;;;;29.25;21.77;100427.78;1854065;77;21264;-86
2022/05/24 07:03:20;;;;;;;11.50;4.30;;;;;;;29.37;19.13;100425.19;1853587;77;20944;-88
2022/05/24 07:05:49;;;;;;;4.97;3.33;;;;;;;29.29;19.34;100426.30;1853935;77;21140;-87
2022/05/24 07:08:21;;;;;;;5.25;3.33;;;;;;;29.17;19.73;100428.89;1852451;76;20862;-86
2022/05/24 07:10:49;;;;;;;5.75;2.72;;;;;;;29.30;20.25;100426.09;1856604;77;20874;-87
2022/05/24 07:13:18;;;;;;;4.47;3.52;;;;;;;29.47;19.72;100416.89;1854346;77;20932;-85
2022/05/24 07:15:46;;;;;;;4.12;3.37;;;;;;;29.62;18.58;100422.48;1854254;77;20952;-88
2022/05/24 07:18:13;;;;;;;6.85;3.02;;;;;;;29.72;19.52;100420.11;1854096;77;21942;-87
2022/05/24 07:20:41;;;;;;;5.97;2.60;;;;;;;29.83;19.59;100412.61;1824149;77;20830;-88
2022/05/24 07:23:14;;;;;;;3.17;2.50;;;;;;;30.04;19.69;100415.95;1855327;77;20893;-87
2022/05/24 07:25:41;;;;;;;6.00;4.03;;;;;;;30.28;19.27;100423.18;1857014;77;20850;-86
2022/05/24 07:28:12;;;;;;;2.77;2.58;;;;;;;30.31;18.82;100426.77;1854930;77;21411;-87
2022/05/24 07:30:39;;;;;;;3.92;3.45;;;;;;;30.14;18.63;100418.93;1853480;77;21281;-86
2022/05/24 07:33:06;;;;;;;4.95;3.40;;;;;;;29.94;18.62;100417.27;1853970;77;20921;-85
2022/05/24 07:35:35;;;;;;;4.75;3.55;;;;;;;29.88;17.99;100416.84;1853559;77;21042;-85
2022/05/24 07:38:02;;;;;;;3.72;2.75;;;;;;;29.80;18.20;100419.02;1854623;77;20926;-86
2022/05/24 07:46:05;;;;;;;5.62;3.40;;;;;;;29.96;18.70;100411.65;1855372;77;21031;-86
2022/05/24 07:48:31;;;;;;;3.37;2.72;;;;;;;29.93;19.37;100407.52;1853642;77;20905;-86
2022/05/24 07:50:58;;;;;;;4.10;2.92;;;;;;;29.77;19.86;100409.48;1853624;77;20878;-86
2022/05/24 07:53:25;;;;;;;7.53;4.05;;;;;;;29.61;19.23;100406.77;1853606;77;20870;-86
2022/05/24 07:55:54;;;;;;;7.80;4.78;;;;;;;29.43;19.38;100407.56;1853640;76;21195;-86
2022/05/24 07:58:21;;;;;;;8.05;4.10;;;;;;;29.41;19.97;100402.91;1853703;77;20870;-86
2022/05/24 08:00:54;;;;;;;8.45;4.15;;;;;;;29.59;20.41;100406.70;1853636;76;20925;-87
2022/05/24 08:03:21;;;;;;;6.40;4.58;;;;;;;29.84;20.26;100400.77;1823345;77;20916;-87
2022/05/24 08:05:48;;;;;;;7.42;5.42;;;;;;;30.22;20.00;100403.75;1853518;77;20971;-86
2022/05/24 08:08:17;;;;;;;7.90;5.28;;;;;;;30.48;19.54;100403.98;1853865;77;21207;-87
2022/05/24 08:10:44;;;;;;;5.72;5.05;;;;;;;30.62;19.09;100405.97;1785498;80;20963;-88
2022/05/24 08:13:15;;;;;;;7.55;5.42;;;;;;;30.74;18.73;100404.11;1814184;79;20908;-87
2022/05/24 08:15:42;;;;;;;12.85;6.45;;;;;;;30.87;18.89;100399.60;1816236;77;20762;-85
2022/05/24 08:18:10;;;;;;;13.18;6.47;;;;;;;30.97;18.63;100403.40;1815709;79;20885;-83
2022/05/24 08:20:38;;;;;;;8.50;5.75;;;;;;;31.16;19.10;100402.77;1815370;78;21073;-86
2022/05/24 08:23:07;;;;;;;7.87;6.35;;;;;;;31.37;18.22;100399.19;1813289;79;20940;-85
2022/05/24 08:25:35;;;;;;;7.08;6.42;;;;;;;31.44;17.98;100394.53;1814001;77;21243;-87
2022/05/24 08:28:07;;;;;;;11.33;7.03;;;;;;;31.52;18.02;100394.69;1815801;77;20979;-86
2022/05/24 08:30:37;;;;;;;9.58;6.67;;;;;;;31.56;17.13;100393.98;1815750;77;20865;-87
2022/05/24 08:33:04;;;;;;;11.15;8.05;;;;;;;31.60;16.70;100395.70;1815273;77;21125;-87
2022/05/24 08:35:34;;;;;;;11.35;7.72;;;;;;;31.65;17.13;100389.56;1815288;77;20869;-88
2022/05/24 08:38:04;;;;;;;13.30;9.03;;;;;;;31.61;17.30;100404.11;1814414;78;21350;-88
2022/05/24 08:40:36;;;;;;;17.25;9.05;;;;;;;31.72;17.70;100396.50;1790791;78;20925;-86
2022/05/24 08:43:11;;;;;;;12.55;8.53;;;;;;;31.54;17.02;100399.35;1764813;80;20984;-86
2022/05/24 08:48:52;;;;;;;8.48;7.35;;;;;;;30.50;17.55;100392.91;1788414;78;20968;-86
2022/05/24 08:51:32;;;;;;;11.33;6.90;;;;;;;30.16;18.91;100394.66;1790389;78;20948;-87
2022/05/24 08:54:12;;;;;;;13.75;6.35;;;;;;;29.95;19.35;100393.25;1790124;78;20942;-86
2022/05/24 08:57:00;;;;;;;11.10;7.60;;;;;;;30.00;19.42;100391.75;1790206;79;20991;-87
2022/05/24 08:59:32;;;;;;;10.98;5.85;;;;;;;29.98;19.26;100389.80;1789992;78;21102;-86
2022/05/24 09:02:02;;;;;;;6.53;4.45;;;;;;;29.90;19.02;100390.41;1791133;79;21469;-89
2022/05/24 09:04:30;;;;;;;9.45;5.83;;;;;;;29.78;19.25;100388.14;1790285;78;20886;-87
2022/05/24 09:07:41;;;;;;;6.20;4.12;;;;;;;29.62;18.98;100386.81;1763667;80;20984;-87
2022/05/24 09:10:21;;;;;;;5.28;4.00;;;;;;;29.64;19.40;100379.84;1790074;79;20905;-88
2022/05/24 09:13:10;;;;;;;5.47;3.27;;;;;;;29.69;18.26;100382.20;1790133;78;20929;-88
2022/05/24 09:16:08;;;;;;;3.17;2.87;;;;;;;29.53;19.42;100384.92;1789812;80;20949;-86
2022/05/24 09:19:20;;;;;;;2.67;2.45;;;;;;;29.37;19.15;100383.30;1791136;79;20993;-85
2022/05/24 09:21:52;;;;;;;4.78;3.17;;;;;;;28.98;19.31;100380.70;1792283;79;20921;-86
2022/05/24 09:24:42;;;;;;;15.55;9.00;;;;;;;28.79;19.15;100390.61;1791213;79;20946;-87
2022/05/24 09:27:18;;;;;;;4.62;3.87;;;;;;;28.83;19.25;100382.34;1789950;78;21130;-87
2022/05/24 09:30:05;;;;;;;6.25;3.65;;;;;;;28.84;19.80;100385.90;1790589;79;21347;-88
2022/05/24 09:32:40;;;;;;;4.55;2.70;;;;;;;28.92;18.81;100381.03;1790017;79;21387;-87
2022/05/24 09:35:24;;;;;;;4.05;2.72;;;;;;;29.03;19.18;100378.69;1789776;78;20964;-87
2022/05/24 09:38:11;;;;;;;2.87;1.70;;;;;;;29.22;19.57;100376.91;1790044;78;20956;-88
2022/05/24 09:40:58;;;;;;;6.58;2.47;;;;;;;29.44;19.25;100380.86;1811327;78;21248;-88
2022/05/24 09:43:29;;;;;;;5.50;1.57;;;;;;;29.40;19.25;100386.94;1730655;81;20915;-84
2022/05/24 09:46:05;;;;;;;2.83;2.17;;;;;;;29.50;18.84;100383.19;1707397;84;21014;-86
2022/05/24 09:48:40;;;;;;;3.83;3.47;;;;;;;29.54;19.92;100376.29;1725470;83;21638;-89
2022/05/24 09:54:16;;;;;;;4.08;1.67;;;;;;;29.70;18.90;100368.15;1799006;79;22486;-86
2022/05/24 09:57:08;;;;;;;2.95;2.12;;;;;;;29.80;18.73;100369.81;1759304;81;20908;-88
2022/05/24 09:59:40;;;;;;;2.58;1.90;;;;;;;29.94;18.44;100367.25;1758907;81;21240;-87
2022/05/24 10:02:32;;;;;;;7.10;1.82;;;;;;;30.12;18.42;100367.76;1758897;81;20936;-88
2022/05/24 10:05:03;;;;;;;5.28;1.95;;;;;;;30.33;18.32;100365.67;1764385;80;20888;-87
2022/05/24 10:07:34;;;;;;;7.65;2.45;;;;;;;30.37;18.06;100362.78;1758694;80;21378;-87
2022/05/24 10:10:12;;;;;;;9.20;2.00;;;;;;;30.45;18.05;100376.54;1758933;80;21401;-86
2022/05/24 10:13:20;;;;;;;2.67;2.00;;;;;;;30.52;18.43;100371.84;1758496;81;21195;-88
2022/05/24 10:16:18;;;;;;;6.53;1.37;;;;;;;30.38;18.49;100360.39;1758444;81;20956;-87
2022/05/24 10:19:22;;;;;;;6.03;1.42;;;;;;;30.31;18.97;100375.90;1759291;81;20884;-88
2022/05/24 10:22:36;;;;;;;2.33;1.25;;;;;;;30.31;19.28;100381.31;1728442;81;20951;-89
2022/05/24 10:25:08;;;;;;;3.58;1.50;;;;;;;30.39;18.44;100374.73;1742588;78;20995;-87
2022/05/24 10:27:58;;;;;;;6.03;1.65;;;;;;;30.35;18.39;100368.98;1761604;78;22717;-84
2022/05/24 10:30:31;;;;;;;1.20;1.10;;;;;;;30.45;19.10;100376.54;1761081;80;20960;-86
2022/05/24 10:39:49;;;;;;;6.65;2.75;;;;;;;30.76;18.96;100376.81;1761063;80;20951;-88
2022/05/24 10:42:29;;;;;;;3.93;2.00;;;;;;;30.96;18.32;100390.90;1756776;81;21220;-88
2022/05/24 10:45:06;;;;;;;4.40;3.08;;;;;;;30.92;18.10;100382.94;1760857;81;21268;-88
2022/05/24 10:48:05;;;;;;;4.83;2.35;;;;;;;30.96;18.56;100371.94;1761154;81;20885;-87
2022/05/24 10:50:46;;;;;;;5.50;1.98;;;;;;;31.02;18.15;100380.22;1759159;81;20912;-86
2022/05/24 10:53:29;;;;;;;10.23;4.25;;;;;;;31.08;17.74;100376.55;1759368;80;20998;-89
2022/05/24 10:56:10;;;;;;;7.30;2.77;;;;;;;31.21;16.76;100379.58;1719664;83;21257;-88
2022/05/24 10:58:40;;;;;;;5.85;2.40;;;;;;;31.26;17.42;100371.05;1722539;83;20896;-87
2022/05/24 11:01:12;;;;;;;4.83;1.50;;;;;;;31.38;17.54;100375.92;1722643;83;20895;-89
2022/05/24 11:03:45;;;;;;;1.52;1.40;;;;;;;31.32;17.49;100381.46;1722949;83;21370;-90
2022/05/24 11:06:37;;;;;;;1.95;1.70;;;;;;;31.18;16.83;100366.78;1722733;82;20895;-86
2022/05/24 11:09:09;;;;;;;5.53;1.40;;;;;;;31.14;17.45;100364.78;1707377;83;21449;-87
2022/05/24 11:11:58;;;;;;;7.12;2.17;;;;;;;31.07;16.36;100355.41;1722204;83;20876;-87
2022/05/24 11:14:40;;;;;;;7.97;1.77;;;;;;;30.89;16.71;100364.45;1722007;83;20986;-88
2022/05/24 11:17:10;;;;;;;2.25;1.72;;;;;;;30.65;16.69;100366.78;1722137;82;21405;-88
2022/05/24 11:19:39;;;;;;;3.37;1.50;;;;;;;30.48;16.87;100359.33;1722037;83;21464;-89
2022/05/24 11:22:20;;;;;;;5.78;1.27;;;;;;;30.35;17.31;100364.92;1722917;83;21066;-90
2022/05/24 11:25:28;;;;;;;1.52;1.40;;;;;;;30.11;17.41;100360.71;1722409;82;20932;-88
2022/05/24 11:28:09;;;;;;;4.12;2.02;;;;;;;29.98;17.25;100360.05;1724079;83;20900;-86
2022/05/24 11:30:40;;;;;;;4.10;1.50;;;;;;;29.69;16.93;100354.34;1724158;81;21436;-85
2022/05/24 11:33:15;;;;;;;3.08;1.12;;;;;;;29.42;17.32;100360.52;1723737;82;20935;-88
2022/05/24 11:35:45;;;;;;;6.75;1.67;;;;;;;29.17;17.96;100361.38;1724531;80;21124;-87
2022/05/24 11:38:26;;;;;;;4.90;1.62;;;;;;;28.82;17.55;100350.20;1725071;80;20852;-88
2022/05/24 11:41:07;;;;;;;3.58;1.52;;;;;;;28.44;18.00;100365.87;1723347;83;20966;-86
2022/05/24 11:43:47;;;;;;;2.83;1.62;;;;;;;28.00;18.70;100364.81;1720908;81;20907;-87
2022/05/24 11:46:38;;;;;;;7.90;1.80;;;;;;;27.60;19.33;100364.38;1722672;83;20924;-85
2022/05/24 11:49:29;;;;;;;7.58;1.20;;;;;;;27.24;19.70;100359.45;1722422;83;21267;-85
2022/05/24 11:52:03;;;;;;;3.85;1.30;;;;;;;26.95;19.66;100355.28;1722133;83;20994;-87
2022/05/24 11:54:36;;;;;;;4.40;1.27;;;;;;;26.66;19.70;100367.55;1689747;83;20982;-87
2022/05/24 11:57:10;;;;;;;4.25;1.80;;;;;;;26.39;20.09;100361.75;1712563;82;20959;-86
2022/05/24 11:59:48;;;;;;;3.22;1.17;;;;;;;26.15;20.36;100361.78;1716872;83;20990;-85
2022/05/24 12:07:53;;;;;;;5.53;1.80;;;;;;;25.96;20.82;100360.13;1717254;83;21460;-85
2022/05/24 12:08:31;;;;;;;6.20;2.58;;;;;;;25.69;22.55;100359.66;1717011;83;20856;-85
2022/05/24 12:11:16;;;;;;;6.85;1.95;;;;;;;25.51;22.79;100354.80;1716986;82;20969;-88
2022/05/24 12:13:54;;;;;;;4.45;1.70;;;;;;;25.38;22.88;100352.32;1716845;83;21556;-87
2022/05/24 12:16:57;;;;;;;7.45;2.05;;;;;;;25.30;22.80;100352.48;1717036;83;21240;-85
2022/05/24 12:19:41;;;;;;;2.77;1.57;;;;;;;25.22;22.59;100348.08;1745067;80;20968;-86
2022/05/24 12:22:20;;;;;;;5.80;2.12;;;;;;;25.09;22.39;100346.59;1752992;82;20918;-86
2022/05/24 12:24:50;;;;;;;9.18;2.15;;;;;;;24.94;22.69;100348.53;1753065;82;20849;-87
2022/05/24 12:27:22;;;;;;;5.45;2.08;;;;;;;24.78;22.66;100349.63;1717185;83;20904;-86
2022/05/24 12:30:24;;;;;;;2.87;1.70;;;;;;;24.67;22.86;100355.50;1717048;82;21309;-86
2022/05/24 12:32:52;;;;;;;2.72;1.62;;;;;;;24.53;22.94;100347.31;1718698;83;20923;-86
2022/05/24 12:35:20;;;;;;;4.55;1.92;;;;;;;24.33;22.88;100349.75;1718069;83;20868;-86